This is the latest recevied weather packets stored in our database for station/object DH3PAE-6. If no packets are shown the sender has not sent any weather packets the latest 10 day(s).
| Time | Temp. | Humidity | Pressure | Rain* | Wind** | Luminosity | Snow |
|---|---|---|---|---|---|---|---|
| 1777665497 | 11.67° C | 56% | 1021.9 hPa | 0 mm | - | 0 W/m² | - |
| 1777659500 | 17.78° C | 36% | 1022 hPa | 0 mm | - | 11 W/m² | - |
| 1777658297 | 18.89° C | 34% | 1021.8 hPa | 0 mm | - | 18 W/m² | - |
| 1777657697 | 18.89° C | 32% | 1021.8 hPa | 0 mm | - | 86 W/m² | - |
| 1777656497 | 19.44° C | 32% | 1021.7 hPa | 0 mm | - | 163 W/m² | - |
| 1777652900 | 20° C | 32% | 1021.9 hPa | 0 mm | - | 334 W/m² | - |
| 1777646897 | 20.56° C | 31% | 1022.8 hPa | 0 mm | - | 606 W/m² | - |
| 1777645100 | 20.56° C | 30% | 1022.9 hPa | 0 mm | - | 677 W/m² | - |
| 1777642700 | 20.56° C | 30% | 1023.3 hPa | 0 mm | - | 749 W/m² | - |
| 1777634896 | 19.44° C | 29% | 1024.5 hPa | 0 mm | - | 858 W/m² | - |
| 1777633097 | 18.89° C | 28% | 1024.7 hPa | 0 mm | - | 846 W/m² | - |
| 1777628896 | 17.22° C | 30% | 1025.2 hPa | 0 mm | - | 793 W/m² | - |
| 1777625896 | 15.56° C | 32% | 1025.4 hPa | 0 mm | - | 708 W/m² | - |
| 1777617496 | 12.22° C | 39% | 1025.3 hPa | 0 mm | - | 360 W/m² | - |
| 1777615099 | 11.11° C | 40% | 1025.5 hPa | 0 mm | - | 229 W/m² | - |
| 1777614519 | 11.11° C | 41% | 1025.4 hPa | 0 mm | - | 93 W/m² | - |
| 1777610296 | 8.33° C | 45% | 1024.9 hPa | 0 mm | - | 9 W/m² | - |
| 1777607919 | 8.89° C | 44% | 1024.9 hPa | 0 mm | - | 0 W/m² | - |
| 1777603099 | 9.44° C | 43% | 1025.2 hPa | 0 mm | - | 0 W/m² | - |
| 1777598918 | 10.56° C | 40% | 1025 hPa | 0 mm | - | 0 W/m² | - |
| 1777596501 | 10.56° C | 41% | 1025.1 hPa | 0 mm | - | 0 W/m² | - |
| 1777592897 | 11.11° C | 39% | 1025.5 hPa | 0 mm | - | 0 W/m² | - |
| 1777585740 | 12.22° C | 34% | 1025.5 hPa | 0 mm | - | 0 W/m² | - |
| 1777585100 | 12.22° C | 33% | 1025.3 hPa | 0 mm | - | 0 W/m² | - |
| 1777582144 | 12.78° C | 32% | 1025.1 hPa | 0 mm | - | 0 W/m² | - |
* Rain latest hour (hover to see other rain measurements)
** Current wind speed in m/s (hover to see current wind gust speed)